Time;durP1;ratioP1;P1;durP2;ratioP2;P2;SDS_P1;SDS_P2;PMS_P1;PMS_P2;Temp;Humidity;BMP_temperature;BMP_pressure;BME280_temperature;BME280_humidity;BME280_pressure;Samples;Min_cycle;Max_cycle;Signal;HPM_P1;HPM_P2
2023/05/31 00:01:20;;;;;;;3.03;1.83;;;;;;;;;;6214456;23;20182;-85
2023/05/31 00:03:48;;;;;;;1.30;1.30;;;;;;;;;;6214275;23;20178;-85
2023/05/31 00:06:17;;;;;;;1.83;1.73;;;;;;;;;;6214316;23;20178;-85
2023/05/31 00:08:48;;;;;;;0.83;0.83;;;;;;;;;;6214342;23;20182;-82
2023/05/31 00:11:17;;;;;;;1.10;1.10;;;;;;;;;;6214198;23;20182;-82
2023/05/31 00:13:45;;;;;;;3.47;1.60;;;;;;;;;;6214418;23;20179;-82
2023/05/31 00:16:14;;;;;;;1.90;1.40;;;;;;;;;;6213660;23;20225;-85
2023/05/31 00:19:02;;;;;;;1.40;1.30;;;;;;;;;;6214225;23;20266;-85
2023/05/31 00:21:31;;;;;;;1.00;1.00;;;;;;;;;;6213911;23;20178;-85
2023/05/31 00:24:02;;;;;;;2.73;2.20;;;;;;;;;;6213787;23;20167;-85
2023/05/31 00:26:31;;;;;;;2.37;2.17;;;;;;;;;;6214110;23;20206;-85
2023/05/31 00:28:59;;;;;;;1.73;1.60;;;;;;;;;;6213639;23;20205;-84
2023/05/31 00:31:28;;;;;;;3.60;2.77;;;;;;;;;;6214066;23;20186;-85
2023/05/31 00:33:57;;;;;;;2.10;1.90;;;;;;;;;;6213371;23;20175;-85
2023/05/31 00:36:25;;;;;;;1.77;1.67;;;;;;;;;;6213723;23;20201;-84
2023/05/31 00:38:53;;;;;;;1.97;1.87;;;;;;;;;;6214134;23;20204;-85
2023/05/31 00:41:24;;;;;;;2.33;1.67;;;;;;;;;;6213249;23;20181;-82
2023/05/31 00:43:53;;;;;;;4.10;2.80;;;;;;;;;;6213888;23;20177;-81
2023/05/31 00:46:25;;;;;;;1.67;1.57;;;;;;;;;;6213938;23;20197;-82
2023/05/31 00:48:55;;;;;;;2.10;2.00;;;;;;;;;;6213709;23;20179;-82
2023/05/31 00:51:24;;;;;;;2.70;1.87;;;;;;;;;;6212825;23;20202;-82
2023/05/31 00:53:53;;;;;;;1.97;1.63;;;;;;;;;;6214082;23;20239;-81
2023/05/31 00:56:22;;;;;;;1.90;1.80;;;;;;;;;;6213856;23;20201;-85
2023/05/31 00:58:53;;;;;;;3.43;2.53;;;;;;;;;;6213636;23;20173;-85
2023/05/31 01:01:26;;;;;;;1.97;1.67;;;;;;;;;;6214076;23;20225;-85
2023/05/31 01:03:55;;;;;;;1.47;1.37;;;;;;;;;;6214029;23;20182;-85
2023/05/31 01:06:24;;;;;;;1.43;1.33;;;;;;;;;;6213508;23;20222;-85
2023/05/31 01:08:52;;;;;;;16.70;3.33;;;;;;;;;;6213774;23;20178;-85
2023/05/31 01:11:25;;;;;;;1.20;1.20;;;;;;;;;;6214361;23;20174;-85
2023/05/31 01:14:00;;;;;;;1.80;1.70;;;;;;;;;;6213846;23;20175;-85
2023/05/31 01:16:32;;;;;;;3.27;2.70;;;;;;;;;;6213658;23;20257;-85
2023/05/31 01:19:06;;;;;;;1.10;1.10;;;;;;;;;;6213581;23;20179;-85
2023/05/31 01:21:46;;;;;;;4.37;3.30;;;;;;;;;;6213516;23;20184;-85
2023/05/31 01:24:22;;;;;;;3.40;2.80;;;;;;;;;;6213310;23;20166;-85
2023/05/31 01:26:53;;;;;;;5.23;2.77;;;;;;;;;;6213867;23;20177;-85
2023/05/31 01:29:23;;;;;;;3.33;2.77;;;;;;;;;;6214159;23;20174;-85
2023/05/31 01:31:52;;;;;;;2.60;2.07;;;;;;;;;;6213227;23;20198;-85
2023/05/31 01:34:21;;;;;;;2.90;1.70;;;;;;;;;;6213594;23;20175;-85
2023/05/31 01:36:49;;;;;;;2.40;2.20;;;;;;;;;;6213566;23;20186;-85
2023/05/31 01:39:19;;;;;;;2.67;1.97;;;;;;;;;;6213415;23;20225;-85
2023/05/31 01:41:49;;;;;;;1.23;1.20;;;;;;;;;;6215654;23;20178;-85
2023/05/31 01:44:19;;;;;;;1.97;1.83;;;;;;;;;;6215881;23;20205;-85
2023/05/31 01:46:48;;;;;;;5.57;2.60;;;;;;;;;;6215667;23;20206;-85
2023/05/31 01:49:16;;;;;;;2.23;2.03;;;;;;;;;;6215237;23;20201;-85
2023/05/31 01:51:46;;;;;;;6.40;1.57;;;;;;;;;;6215276;23;20226;-85
2023/05/31 01:54:15;;;;;;;2.27;1.63;;;;;;;;;;6215978;23;20216;-85
2023/05/31 01:56:43;;;;;;;2.43;1.00;;;;;;;;;;6214952;23;20185;-85
2023/05/31 01:59:12;;;;;;;6.13;3.23;;;;;;;;;;6215688;23;20175;-82
2023/05/31 02:01:42;;;;;;;2.00;1.83;;;;;;;;;;6215613;23;20171;-85
2023/05/31 02:04:11;;;;;;;1.60;1.50;;;;;;;;;;6215239;23;20194;-85
2023/05/31 02:06:39;;;;;;;7.00;2.63;;;;;;;;;;6215050;23;20202;-85
2023/05/31 02:09:08;;;;;;;1.50;1.40;;;;;;;;;;6215967;23;20181;-82
2023/05/31 02:11:36;;;;;;;2.40;2.30;;;;;;;;;;6215338;23;20181;-82
2023/05/31 02:14:05;;;;;;;2.07;1.87;;;;;;;;;;6214743;23;20178;-81
2023/05/31 02:16:34;;;;;;;1.13;1.10;;;;;;;;;;6215469;23;20170;-82
2023/05/31 02:19:03;;;;;;;1.33;1.27;;;;;;;;;;6215533;23;20170;-82
2023/05/31 02:21:35;;;;;;;2.87;1.40;;;;;;;;;;6215096;23;20241;-82
2023/05/31 02:24:03;;;;;;;2.53;2.07;;;;;;;;;;6215389;23;20175;-82
2023/05/31 02:26:32;;;;;;;2.20;2.00;;;;;;;;;;6215475;23;20194;-82
2023/05/31 02:29:00;;;;;;;3.13;2.47;;;;;;;;;;6215470;23;20179;-82
2023/05/31 02:31:29;;;;;;;3.17;2.07;;;;;;;;;;6215098;23;20182;-82
2023/05/31 02:33:57;;;;;;;1.50;1.40;;;;;;;;;;6215613;23;20217;-82
2023/05/31 02:36:28;;;;;;;4.37;2.03;;;;;;;;;;6215082;23;20230;-82
2023/05/31 02:38:57;;;;;;;3.60;2.20;;;;;;;;;;6214915;23;20177;-82
2023/05/31 02:41:26;;;;;;;0.70;0.70;;;;;;;;;;6215479;23;20181;-82
2023/05/31 02:43:54;;;;;;;1.47;1.37;;;;;;;;;;6214918;23;20180;-82
2023/05/31 02:46:23;;;;;;;2.67;1.93;;;;;;;;;;6214998;23;20198;-82
2023/05/31 02:48:51;;;;;;;1.07;1.07;;;;;;;;;;6215159;23;20170;-82
2023/05/31 02:51:22;;;;;;;0.97;0.97;;;;;;;;;;6214624;23;20228;-82
2023/05/31 02:53:52;;;;;;;1.17;1.17;;;;;;;;;;6215516;23;20174;-82
2023/05/31 02:56:21;;;;;;;0.93;0.93;;;;;;;;;;6214853;23;20171;-82
2023/05/31 02:58:50;;;;;;;1.90;1.63;;;;;;;;;;6214851;23;20173;-82
2023/05/31 03:01:18;;;;;;;1.30;1.20;;;;;;;;;;6214717;23;20185;-82
2023/05/31 03:03:47;;;;;;;1.93;1.83;;;;;;;;;;6214666;23;20175;-82
2023/05/31 03:06:16;;;;;;;2.40;2.13;;;;;;;;;;6214742;23;20194;-82
2023/05/31 03:08:45;;;;;;;3.23;2.63;;;;;;;;;;6215461;23;20175;-81
2023/05/31 03:11:14;;;;;;;2.73;1.90;;;;;;;;;;6214464;23;20197;-82
2023/05/31 03:13:43;;;;;;;2.33;2.00;;;;;;;;;;6214879;23;20171;-82
2023/05/31 03:16:12;;;;;;;3.67;2.77;;;;;;;;;;6215162;23;20281;-82
2023/05/31 03:18:40;;;;;;;2.00;1.90;;;;;;;;;;6214970;23;20182;-82
2023/05/31 03:21:09;;;;;;;5.17;2.50;;;;;;;;;;6214464;23;20167;-82
2023/05/31 03:23:38;;;;;;;2.67;2.43;;;;;;;;;;6214768;23;20167;-82
2023/05/31 03:26:06;;;;;;;1.93;1.70;;;;;;;;;;6214862;23;20190;-82
2023/05/31 03:28:36;;;;;;;1.17;1.17;;;;;;;;;;6214587;23;20191;-82
2023/05/31 03:31:05;;;;;;;1.50;1.40;;;;;;;;;;6215031;23;20234;-82
2023/05/31 03:33:35;;;;;;;1.20;1.20;;;;;;;;;;6214700;23;20198;-82
2023/05/31 03:36:03;;;;;;;1.87;1.77;;;;;;;;;;6214566;23;20163;-82
2023/05/31 03:38:32;;;;;;;2.00;1.90;;;;;;;;;;6214197;23;20261;-82
2023/05/31 03:41:00;;;;;;;0.90;0.90;;;;;;;;;;6214466;23;20177;-82
2023/05/31 03:43:29;;;;;;;1.00;1.00;;;;;;;;;;6214325;23;20208;-82
2023/05/31 03:46:00;;;;;;;2.00;1.83;;;;;;;;;;6214028;23;20194;-81
2023/05/31 03:48:29;;;;;;;0.90;0.90;;;;;;;;;;6214307;23;20201;-82
2023/05/31 03:50:58;;;;;;;1.57;1.47;;;;;;;;;;6214327;23;20206;-82
2023/05/31 03:53:27;;;;;;;1.23;1.23;;;;;;;;;;6213975;23;20170;-82
2023/05/31 03:55:55;;;;;;;1.40;1.03;;;;;;;;;;6214032;23;20178;-82
2023/05/31 03:58:24;;;;;;;1.43;1.33;;;;;;;;;;6213977;23;20180;-82
2023/05/31 04:00:53;;;;;;;1.13;1.10;;;;;;;;;;6214388;23;20188;-82
2023/05/31 04:03:23;;;;;;;1.07;1.07;;;;;;;;;;6213051;23;20170;-81
2023/05/31 04:05:52;;;;;;;5.27;2.87;;;;;;;;;;6214383;23;20274;-82
2023/05/31 04:08:20;;;;;;;2.57;2.33;;;;;;;;;;6214202;23;20182;-81
2023/05/31 04:10:49;;;;;;;3.93;2.40;;;;;;;;;;6214522;23;20178;-85
2023/05/31 04:13:17;;;;;;;2.33;1.93;;;;;;;;;;6214355;23;20190;-82
2023/05/31 04:15:46;;;;;;;1.10;1.07;;;;;;;;;;6214152;23;20178;-82
2023/05/31 04:18:14;;;;;;;2.03;1.93;;;;;;;;;;6213725;23;20166;-85
2023/05/31 04:20:44;;;;;;;2.00;1.87;;;;;;;;;;6213977;23;20186;-85
2023/05/31 04:23:13;;;;;;;4.70;1.80;;;;;;;;;;6214391;23;20177;-85
2023/05/31 04:25:44;;;;;;;1.47;1.37;;;;;;;;;;6214161;23;20170;-85
2023/05/31 04:28:13;;;;;;;2.97;2.77;;;;;;;;;;6213594;23;20294;-85
2023/05/31 04:30:41;;;;;;;1.17;1.10;;;;;;;;;;6214865;23;20174;-85
2023/05/31 04:33:10;;;;;;;2.23;2.03;;;;;;;;;;6214438;23;20178;-85
2023/05/31 04:35:40;;;;;;;2.50;1.90;;;;;;;;;;6213705;23;20179;-85
2023/05/31 04:38:10;;;;;;;2.77;2.57;;;;;;;;;;6213798;23;20228;-86
2023/05/31 04:40:38;;;;;;;2.90;1.53;;;;;;;;;;6214493;23;20175;-87
2023/05/31 04:43:07;;;;;;;3.53;1.43;;;;;;;;;;6214099;23;20206;-86
2023/05/31 04:45:36;;;;;;;0.90;0.90;;;;;;;;;;6214065;23;20232;-86
2023/05/31 04:48:05;;;;;;;2.07;1.87;;;;;;;;;;6213451;23;20186;-86
2023/05/31 04:50:34;;;;;;;2.63;2.43;;;;;;;;;;6213961;23;20220;-86
2023/05/31 04:53:03;;;;;;;3.90;2.57;;;;;;;;;;6213212;23;20182;-87
2023/05/31 04:55:33;;;;;;;4.57;2.00;;;;;;;;;;6214024;23;20261;-87
2023/05/31 04:58:01;;;;;;;3.00;1.83;;;;;;;;;;6213919;23;20257;-86
2023/05/31 05:00:30;;;;;;;1.73;1.63;;;;;;;;;;6213769;23;20178;-87
2023/05/31 05:02:58;;;;;;;2.77;2.50;;;;;;;;;;6214121;23;20174;-87
2023/05/31 05:05:27;;;;;;;2.07;1.70;;;;;;;;;;6214062;23;20232;-87
2023/05/31 05:07:56;;;;;;;6.93;3.17;;;;;;;;;;6213904;23;20250;-87
2023/05/31 05:10:24;;;;;;;2.73;2.33;;;;;;;;;;6213399;23;20176;-86
2023/05/31 05:12:54;;;;;;;1.80;1.70;;;;;;;;;;6213848;23;20171;-87
2023/05/31 05:15:22;;;;;;;2.33;2.13;;;;;;;;;;6214220;23;20182;-86
2023/05/31 05:17:51;;;;;;;1.87;1.70;;;;;;;;;;6213241;23;20181;-87
2023/05/31 05:20:20;;;;;;;2.30;1.40;;;;;;;;;;6213921;23;20175;-83
2023/05/31 05:22:51;;;;;;;3.20;2.23;;;;;;;;;;6214114;23;20171;-83
2023/05/31 05:25:22;;;;;;;2.63;2.40;;;;;;;;;;6213310;23;20186;-82
2023/05/31 05:27:51;;;;;;;4.67;3.70;;;;;;;;;;6213326;23;20198;-83
2023/05/31 05:30:21;;;;;;;3.63;2.73;;;;;;;;;;6214083;23;20178;-84
2023/05/31 05:32:50;;;;;;;6.40;2.90;;;;;;;;;;6214279;23;20175;-83
2023/05/31 05:35:18;;;;;;;2.37;1.90;;;;;;;;;;6213217;23;20226;-84
2023/05/31 05:37:47;;;;;;;5.50;2.60;;;;;;;;;;6214177;23;20172;-83
2023/05/31 05:40:16;;;;;;;2.70;2.30;;;;;;;;;;6213883;23;20186;-83
2023/05/31 05:42:46;;;;;;;6.37;4.27;;;;;;;;;;6187672;23;20175;-81
2023/05/31 05:45:17;;;;;;;5.30;3.93;;;;;;;;;;6214402;23;20229;-81
2023/05/31 05:47:48;;;;;;;4.00;2.30;;;;;;;;;;6214430;23;20190;-82
2023/05/31 05:50:18;;;;;;;3.17;2.97;;;;;;;;;;6213886;23;20170;-81
2023/05/31 05:52:47;;;;;;;3.13;1.93;;;;;;;;;;6213841;23;20175;-81
2023/05/31 05:55:15;;;;;;;3.40;2.50;;;;;;;;;;6214018;23;20170;-82
2023/05/31 05:57:44;;;;;;;6.60;3.43;;;;;;;;;;6213695;23;20173;-82
2023/05/31 06:00:15;;;;;;;10.40;4.30;;;;;;;;;;6213382;23;20170;-82
2023/05/31 06:02:44;;;;;;;3.27;2.57;;;;;;;;;;6213673;23;20175;-79
2023/05/31 06:05:21;;;;;;;1.87;1.70;;;;;;;;;;6213915;23;20183;-81
2023/05/31 06:07:49;;;;;;;6.80;3.60;;;;;;;;;;6213444;23;20191;-81
2023/05/31 06:10:19;;;;;;;2.83;2.30;;;;;;;;;;6214104;23;20174;-81
2023/05/31 06:12:48;;;;;;;3.47;2.93;;;;;;;;;;6214078;23;20179;-80
2023/05/31 06:15:18;;;;;;;4.67;3.10;;;;;;;;;;6213093;23;20168;-81
2023/05/31 06:17:48;;;;;;;4.50;2.60;;;;;;;;;;6213731;23;20174;-83
2023/05/31 06:20:18;;;;;;;2.90;2.63;;;;;;;;;;6213421;23;20168;-84
2023/05/31 06:22:47;;;;;;;3.43;3.13;;;;;;;;;;6213931;23;20176;-83
2023/05/31 06:25:19;;;;;;;4.40;1.70;;;;;;;;;;6213400;23;20223;-83
2023/05/31 06:27:51;;;;;;;6.77;3.97;;;;;;;;;;6215100;23;20191;-82
2023/05/31 06:30:21;;;;;;;3.07;2.13;;;;;;;;;;6215598;23;20181;-82
2023/05/31 06:32:51;;;;;;;3.13;2.80;;;;;;;;;;6214875;23;20168;-83
2023/05/31 06:35:22;;;;;;;3.10;2.80;;;;;;;;;;6215404;23;20176;-84
2023/05/31 06:37:52;;;;;;;6.30;4.93;;;;;;;;;;6215215;23;20170;-85
2023/05/31 06:40:21;;;;;;;4.97;3.67;;;;;;;;;;6215148;23;20223;-81
2023/05/31 06:42:50;;;;;;;6.17;3.47;;;;;;;;;;6214767;23;20179;-82
2023/05/31 06:45:18;;;;;;;5.57;4.50;;;;;;;;;;6215080;23;20181;-82
2023/05/31 06:47:47;;;;;;;6.37;4.17;;;;;;;;;;6215284;23;20244;-82
2023/05/31 06:50:16;;;;;;;7.50;4.33;;;;;;;;;;6214736;23;20247;-82
2023/05/31 06:52:46;;;;;;;5.90;3.80;;;;;;;;;;6215790;23;20181;-82
2023/05/31 06:55:15;;;;;;;2.83;2.50;;;;;;;;;;6215409;23;20181;-83
2023/05/31 06:57:45;;;;;;;1.87;1.73;;;;;;;;;;6215089;23;20165;-83
2023/05/31 07:00:15;;;;;;;5.07;2.73;;;;;;;;;;6214680;23;20256;-82
2023/05/31 07:02:44;;;;;;;3.87;3.07;;;;;;;;;;6215154;23;20170;-82
2023/05/31 07:05:13;;;;;;;5.50;3.63;;;;;;;;;;6214632;23;20205;-82
2023/05/31 07:07:42;;;;;;;5.03;3.87;;;;;;;;;;6215098;23;20170;-82
2023/05/31 07:10:12;;;;;;;3.70;2.93;;;;;;;;;;6215186;23;20184;-82
2023/05/31 07:12:41;;;;;;;3.67;2.97;;;;;;;;;;6215265;23;20174;-82
2023/05/31 07:15:10;;;;;;;3.97;2.63;;;;;;;;;;6214648;23;20177;-82
2023/05/31 07:17:38;;;;;;;5.03;4.23;;;;;;;;;;6214691;23;20177;-82
2023/05/31 07:20:08;;;;;;;5.63;3.90;;;;;;;;;;6215156;23;20179;-82
2023/05/31 07:22:39;;;;;;;5.50;3.20;;;;;;;;;;6214746;23;20178;-82
2023/05/31 07:25:08;;;;;;;4.70;2.87;;;;;;;;;;6214320;23;20248;-82
2023/05/31 07:27:38;;;;;;;4.00;2.77;;;;;;;;;;6214562;23;20237;-82
2023/05/31 07:30:07;;;;;;;6.67;6.00;;;;;;;;;;6215426;23;20181;-82
2023/05/31 07:32:36;;;;;;;5.87;2.73;;;;;;;;;;6214310;23;20171;-82
2023/05/31 07:35:06;;;;;;;5.57;3.57;;;;;;;;;;6215153;23;20181;-83
2023/05/31 07:37:34;;;;;;;6.90;2.10;;;;;;;;;;6214422;23;20170;-82
2023/05/31 07:40:07;;;;;;;4.27;3.43;;;;;;;;;;6215077;23;20167;-83
2023/05/31 07:42:37;;;;;;;8.47;6.17;;;;;;;;;;6214427;23;20170;-82
2023/05/31 07:45:08;;;;;;;3.37;2.80;;;;;;;;;;6214770;23;20174;-82
2023/05/31 07:47:37;;;;;;;3.87;2.97;;;;;;;;;;6214281;23;20261;-82
2023/05/31 07:50:06;;;;;;;4.73;4.17;;;;;;;;;;6214544;23;20285;-82
2023/05/31 07:52:35;;;;;;;6.00;5.40;;;;;;;;;;6214247;23;20205;-82
2023/05/31 07:55:04;;;;;;;8.57;4.83;;;;;;;;;;6214824;23;20273;-82
2023/05/31 07:57:35;;;;;;;4.23;3.23;;;;;;;;;;6214474;23;20294;-82
2023/05/31 08:00:05;;;;;;;5.37;4.10;;;;;;;;;;6214736;23;20173;-82
2023/05/31 08:02:35;;;;;;;7.73;7.00;;;;;;;;;;6214602;23;20276;-82
2023/05/31 08:05:04;;;;;;;5.20;3.97;;;;;;;;;;6214034;23;20197;-83
2023/05/31 08:07:35;;;;;;;4.77;2.20;;;;;;;;;;6214409;23;20253;-83
2023/05/31 08:10:05;;;;;;;2.80;2.50;;;;;;;;;;6210745;23;20226;-83
2023/05/31 08:12:37;;;;;;;6.43;3.13;;;;;;;;;;6212488;23;20270;-83
2023/05/31 08:15:06;;;;;;;4.40;3.50;;;;;;;;;;6213656;23;20175;-82
2023/05/31 08:17:36;;;;;;;6.97;4.97;;;;;;;;;;6213112;23;20177;-82
2023/05/31 08:20:06;;;;;;;3.43;3.10;;;;;;;;;;6213556;23;20308;-82
2023/05/31 08:22:36;;;;;;;3.13;2.93;;;;;;;;;;6212451;23;20170;-82
2023/05/31 08:25:05;;;;;;;4.33;3.53;;;;;;;;;;6211636;23;20240;-82
2023/05/31 08:27:35;;;;;;;6.73;4.30;;;;;;;;;;6213332;23;20190;-83
2023/05/31 08:30:04;;;;;;;3.50;2.77;;;;;;;;;;6212543;23;20197;-82
2023/05/31 08:32:35;;;;;;;5.63;3.63;;;;;;;;;;6210351;23;20171;-82
2023/05/31 08:35:12;;;;;;;6.03;4.20;;;;;;;;;;6213638;23;20170;-82
2023/05/31 08:37:45;;;;;;;9.43;4.57;;;;;;;;;;6213683;23;20170;-82
2023/05/31 08:40:16;;;;;;;3.83;2.90;;;;;;;;;;6213854;23;20166;-82
2023/05/31 08:42:47;;;;;;;7.43;4.17;;;;;;;;;;6213449;23;20189;-82
2023/05/31 08:45:17;;;;;;;5.77;3.57;;;;;;;;;;6213911;23;20166;-83
2023/05/31 08:47:46;;;;;;;15.70;5.60;;;;;;;;;;6213153;23;20174;-82
2023/05/31 08:50:19;;;;;;;4.63;2.23;;;;;;;;;;6213260;23;20186;-82
2023/05/31 08:52:49;;;;;;;2.33;2.13;;;;;;;;;;6213624;23;20206;-82
2023/05/31 08:55:18;;;;;;;4.70;4.13;;;;;;;;;;6213759;23;20170;-82
2023/05/31 08:57:47;;;;;;;7.03;5.13;;;;;;;;;;6213905;23;20245;-82
2023/05/31 09:00:18;;;;;;;6.03;2.47;;;;;;;;;;6213720;23;20166;-82
2023/05/31 09:02:48;;;;;;;6.37;4.57;;;;;;;;;;6213822;23;20182;-82
2023/05/31 09:05:18;;;;;;;5.17;4.03;;;;;;;;;;6213578;23;20166;-82
2023/05/31 09:07:49;;;;;;;4.27;3.03;;;;;;;;;;6214202;23;20210;-82
2023/05/31 09:10:19;;;;;;;6.77;4.57;;;;;;;;;;6214044;23;20196;-83
2023/05/31 09:12:48;;;;;;;6.90;4.17;;;;;;;;;;6213374;23;20171;-83
2023/05/31 09:15:17;;;;;;;15.40;4.47;;;;;;;;;;6214110;23;20181;-82
2023/05/31 09:17:46;;;;;;;5.60;2.80;;;;;;;;;;6213456;23;20194;-83
2023/05/31 09:20:17;;;;;;;4.70;2.70;;;;;;;;;;6213411;23;20197;-88
2023/05/31 09:22:49;;;;;;;5.00;3.20;;;;;;;;;;6214432;23;20174;-89
2023/05/31 09:25:18;;;;;;;4.50;3.97;;;;;;;;;;6214314;23;20259;-89
2023/05/31 09:27:47;;;;;;;5.13;4.60;;;;;;;;;;6213927;23;20194;-88
2023/05/31 09:30:16;;;;;;;5.70;3.60;;;;;;;;;;6214419;23;20226;-89
2023/05/31 09:32:54;;;;;;;7.50;2.93;;;;;;;;;;6214243;23;20178;-89
2023/05/31 09:35:27;;;;;;;11.47;4.10;;;;;;;;;;6214312;23;20178;-89
2023/05/31 09:37:57;;;;;;;3.63;3.33;;;;;;;;;;6214107;23;20217;-88
2023/05/31 09:40:26;;;;;;;4.33;3.93;;;;;;;;;;6214494;23;20258;-88
2023/05/31 09:42:55;;;;;;;6.00;3.87;;;;;;;;;;6214322;23;20178;-89
2023/05/31 09:45:24;;;;;;;5.50;4.33;;;;;;;;;;6214148;23;20257;-89
2023/05/31 09:47:53;;;;;;;2.00;1.73;;;;;;;;;;6214070;23;20222;-89
2023/05/31 09:50:22;;;;;;;4.33;3.07;;;;;;;;;;6214216;23;20190;-89
2023/05/31 09:52:56;;;;;;;4.37;2.83;;;;;;;;;;6213921;23;20233;-89
2023/05/31 09:55:40;;;;;;;4.60;3.87;;;;;;;;;;6214015;23;20172;-89
2023/05/31 09:58:08;;;;;;;6.90;4.60;;;;;;;;;;6214579;23;20237;-90
2023/05/31 10:00:46;;;;;;;4.43;3.23;;;;;;;;;;6214089;23;20182;-87
2023/05/31 10:03:15;;;;;;;3.30;3.00;;;;;;;;;;6215965;23;20179;-89
2023/05/31 10:05:44;;;;;;;4.30;3.77;;;;;;;;;;6216539;23;20247;-89
2023/05/31 10:08:13;;;;;;;8.73;4.43;;;;;;;;;;6216253;23;20173;-89
2023/05/31 10:10:43;;;;;;;10.80;3.87;;;;;;;;;;6215806;23;20196;-88
2023/05/31 10:13:13;;;;;;;7.80;6.07;;;;;;;;;;6216205;23;20199;-88
2023/05/31 10:15:43;;;;;;;4.20;3.80;;;;;;;;;;6216191;23;20244;-89
2023/05/31 10:18:13;;;;;;;6.27;3.87;;;;;;;;;;6216113;23;20170;-89
2023/05/31 10:20:49;;;;;;;3.13;2.80;;;;;;;;;;6216469;23;20261;-90
2023/05/31 10:23:21;;;;;;;2.57;2.37;;;;;;;;;;6215987;23;20180;-89
2023/05/31 10:25:58;;;;;;;3.40;3.10;;;;;;;;;;6215772;23;20168;-89
2023/05/31 10:28:28;;;;;;;9.83;6.00;;;;;;;;;;6215743;23;20204;-89
2023/05/31 10:30:59;;;;;;;4.03;3.60;;;;;;;;;;6214719;23;20183;-83
2023/05/31 10:33:30;;;;;;;5.70;5.03;;;;;;;;;;6215301;23;20234;-83
2023/05/31 10:35:59;;;;;;;2.90;2.47;;;;;;;;;;6214564;23;20173;-83
2023/05/31 10:38:30;;;;;;;3.97;2.63;;;;;;;;;;6215343;23;20188;-83
2023/05/31 10:41:04;;;;;;;5.13;3.67;;;;;;;;;;6215424;23;20167;-83
2023/05/31 10:43:37;;;;;;;7.00;4.27;;;;;;;;;;6215094;23;20170;-83
2023/05/31 10:46:08;;;;;;;6.60;3.43;;;;;;;;;;6215313;23;20173;-82
2023/05/31 10:48:41;;;;;;;2.83;2.60;;;;;;;;;;6215221;23;20169;-82
2023/05/31 10:51:12;;;;;;;3.77;2.90;;;;;;;;;;6214717;23;20208;-82
2023/05/31 10:53:45;;;;;;;2.63;2.43;;;;;;;;;;6214759;23;20178;-83
2023/05/31 10:56:15;;;;;;;8.60;4.63;;;;;;;;;;6214971;23;20202;-83
2023/05/31 10:58:45;;;;;;;13.03;4.10;;;;;;;;;;6215262;23;20210;-82
2023/05/31 11:01:14;;;;;;;4.83;4.37;;;;;;;;;;6214713;23;20196;-82
2023/05/31 11:03:47;;;;;;;6.03;4.03;;;;;;;;;;6215645;23;20179;-83
2023/05/31 11:06:23;;;;;;;7.50;3.07;;;;;;;;;;6214692;23;20176;-83
2023/05/31 11:08:59;;;;;;;4.53;3.87;;;;;;;;;;6214142;23;20203;-83
2023/05/31 11:11:30;;;;;;;9.43;4.87;;;;;;;;;;6215124;23;20201;-82
2023/05/31 11:14:00;;;;;;;7.13;6.30;;;;;;;;;;6214440;23;20214;-83
2023/05/31 11:16:31;;;;;;;4.53;3.37;;;;;;;;;;6214255;23;20265;-82
2023/05/31 11:19:03;;;;;;;11.97;3.17;;;;;;;;;;6214941;23;20169;-82
2023/05/31 11:21:50;;;;;;;2.40;2.30;;;;;;;;;;6215170;23;20223;-83
2023/05/31 11:24:28;;;;;;;6.70;3.10;;;;;;;;;;6214449;23;20172;-82
2023/05/31 11:26:59;;;;;;;8.50;4.73;;;;;;;;;;6214375;23;20223;-83
2023/05/31 11:29:46;;;;;;;5.67;3.07;;;;;;;;;;6214153;23;20174;-82
2023/05/31 11:32:15;;;;;;;5.43;2.67;;;;;;;;;;6214133;23;20176;-83
2023/05/31 11:34:50;;;;;;;5.73;3.33;;;;;;;;;;6214305;23;20181;-83
2023/05/31 11:37:19;;;;;;;10.00;3.70;;;;;;;;;;6214589;23;20176;-82
2023/05/31 11:39:51;;;;;;;7.17;4.33;;;;;;;;;;6214973;23;20181;-83
2023/05/31 11:42:22;;;;;;;4.40;3.90;;;;;;;;;;6214491;23;20220;-83
2023/05/31 11:44:52;;;;;;;2.60;2.40;;;;;;;;;;6214534;23;20177;-82
2023/05/31 11:47:21;;;;;;;4.57;2.97;;;;;;;;;;6214683;23;20169;-82
2023/05/31 11:49:50;;;;;;;3.10;2.77;;;;;;;;;;6214616;23;20193;-82
2023/05/31 11:52:20;;;;;;;22.80;4.53;;;;;;;;;;6213543;23;20293;-82
2023/05/31 11:54:50;;;;;;;3.80;3.43;;;;;;;;;;6214601;23;20175;-82
2023/05/31 11:57:20;;;;;;;6.17;5.37;;;;;;;;;;6214483;23;20181;-83
2023/05/31 11:59:51;;;;;;;19.27;3.63;;;;;;;;;;6213988;23;20178;-82
2023/05/31 12:02:19;;;;;;;5.63;3.80;;;;;;;;;;6214460;23;20165;-83
2023/05/31 12:04:48;;;;;;;6.97;3.77;;;;;;;;;;6214342;23;20184;-82
2023/05/31 12:07:19;;;;;;;2.10;1.73;;;;;;;;;;6214520;23;20181;-82
2023/05/31 12:09:48;;;;;;;3.80;2.83;;;;;;;;;;6214384;23;20171;-83
2023/05/31 12:12:17;;;;;;;8.23;3.77;;;;;;;;;;6214294;23;20274;-83
2023/05/31 12:14:53;;;;;;;1.93;1.83;;;;;;;;;;6213900;23;20170;-82
2023/05/31 12:17:22;;;;;;;7.37;3.97;;;;;;;;;;6213760;23;20183;-83
2023/05/31 12:19:51;;;;;;;3.70;2.50;;;;;;;;;;6215150;23;20205;-89
2023/05/31 12:22:19;;;;;;;6.17;4.10;;;;;;;;;;6214708;23;20172;-89
2023/05/31 12:24:51;;;;;;;5.73;4.47;;;;;;;;;;6213751;23;20181;-89
2023/05/31 12:27:21;;;;;;;9.33;3.93;;;;;;;;;;6214571;23;20205;-89
2023/05/31 12:30:02;;;;;;;11.07;3.87;;;;;;;;;;6214531;23;20174;-89
2023/05/31 12:32:31;;;;;;;5.13;4.17;;;;;;;;;;6214674;23;20220;-89
2023/05/31 12:35:06;;;;;;;5.57;3.77;;;;;;;;;;6214894;23;20170;-89
2023/05/31 12:37:36;;;;;;;4.40;3.60;;;;;;;;;;6214422;23;20264;-89
2023/05/31 12:40:11;;;;;;;4.20;2.70;;;;;;;;;;6214620;23;20167;-89
2023/05/31 12:42:40;;;;;;;3.73;3.37;;;;;;;;;;6214594;23;20178;-90
2023/05/31 12:45:10;;;;;;;4.93;4.43;;;;;;;;;;6214751;23;20194;-89
2023/05/31 12:47:39;;;;;;;7.57;4.17;;;;;;;;;;6213980;23;20197;-90
2023/05/31 12:50:09;;;;;;;4.93;3.93;;;;;;;;;;6214265;23;20198;-89
2023/05/31 12:52:39;;;;;;;6.77;2.40;;;;;;;;;;6214337;23;20211;-89
2023/05/31 12:55:10;;;;;;;2.60;2.37;;;;;;;;;;6214514;23;20177;-89
2023/05/31 12:57:39;;;;;;;6.97;4.23;;;;;;;;;;6214363;23;20175;-89
2023/05/31 13:00:09;;;;;;;2.47;2.27;;;;;;;;;;6215183;23;20176;-90
2023/05/31 13:02:41;;;;;;;4.13;2.40;;;;;;;;;;6214331;23;20261;-89
2023/05/31 13:05:10;;;;;;;9.63;3.97;;;;;;;;;;6214464;23;20178;-89
2023/05/31 13:07:40;;;;;;;4.47;3.70;;;;;;;;;;6214674;23;20209;-89
2023/05/31 13:10:09;;;;;;;5.60;3.77;;;;;;;;;;6215353;23;20187;-89
2023/05/31 13:12:40;;;;;;;6.83;4.73;;;;;;;;;;6214612;23;20190;-90
2023/05/31 13:15:10;;;;;;;5.07;3.10;;;;;;;;;;6214733;23;20194;-89
2023/05/31 13:17:39;;;;;;;4.83;3.77;;;;;;;;;;6214702;23;20530;-89
2023/05/31 13:20:09;;;;;;;3.40;2.80;;;;;;;;;;6214751;23;20171;-89
2023/05/31 13:22:40;;;;;;;5.50;4.33;;;;;;;;;;6214408;23;20232;-89
2023/05/31 13:25:09;;;;;;;6.43;2.70;;;;;;;;;;6214846;23;20176;-89
2023/05/31 13:27:39;;;;;;;3.50;3.13;;;;;;;;;;6214272;23;20197;-88
2023/05/31 13:30:08;;;;;;;9.90;3.47;;;;;;;;;;6213933;23;20171;-89
2023/05/31 13:32:38;;;;;;;4.20;2.93;;;;;;;;;;6213848;23;20204;-89
2023/05/31 13:35:08;;;;;;;5.03;4.50;;;;;;;;;;6214435;23;20175;-89
2023/05/31 13:37:38;;;;;;;3.43;1.90;;;;;;;;;;6189606;23;20193;-88
2023/05/31 13:40:07;;;;;;;5.43;4.00;;;;;;;;;;6215930;23;20209;-88
2023/05/31 13:42:36;;;;;;;6.63;3.47;;;;;;;;;;6216349;23;20171;-89
2023/05/31 13:45:05;;;;;;;7.83;3.30;;;;;;;;;;6216680;23;20186;-88
2023/05/31 13:47:34;;;;;;;2.20;2.07;;;;;;;;;;6215525;23;20170;-89
2023/05/31 13:50:04;;;;;;;3.50;2.87;;;;;;;;;;6216849;23;20181;-89
2023/05/31 13:52:32;;;;;;;2.67;2.47;;;;;;;;;;6215600;23;20200;-89
2023/05/31 13:55:02;;;;;;;5.37;4.00;;;;;;;;;;6216367;23;20167;-89
2023/05/31 13:57:31;;;;;;;6.83;3.90;;;;;;;;;;6215378;23;20174;-88
2023/05/31 13:59:59;;;;;;;12.70;4.13;;;;;;;;;;6215568;23;20204;-89
2023/05/31 14:02:28;;;;;;;4.33;3.40;;;;;;;;;;6215570;23;20177;-89
2023/05/31 14:04:57;;;;;;;5.20;4.70;;;;;;;;;;6215899;23;20177;-88
2023/05/31 14:07:27;;;;;;;6.07;4.13;;;;;;;;;;6216279;23;20171;-89
2023/05/31 14:09:55;;;;;;;5.30;3.83;;;;;;;;;;6216909;23;20175;-90
2023/05/31 14:12:25;;;;;;;3.33;3.03;;;;;;;;;;6216058;23;20245;-90
2023/05/31 14:14:54;;;;;;;6.27;3.60;;;;;;;;;;6216610;23;20174;-90
2023/05/31 14:17:23;;;;;;;4.03;3.63;;;;;;;;;;6216757;23;20257;-89
2023/05/31 14:19:51;;;;;;;5.33;3.50;;;;;;;;;;6217209;23;20180;-90
2023/05/31 14:22:20;;;;;;;5.23;4.40;;;;;;;;;;6216316;23;20195;-89
2023/05/31 14:24:49;;;;;;;6.07;4.03;;;;;;;;;;6216686;23;20180;-90
2023/05/31 14:27:19;;;;;;;6.10;3.97;;;;;;;;;;6215944;23;20200;-90
2023/05/31 14:29:50;;;;;;;5.50;4.27;;;;;;;;;;6215464;23;20174;-90
2023/05/31 14:32:18;;;;;;;14.97;3.97;;;;;;;;;;6215765;23;20198;-90
2023/05/31 14:34:48;;;;;;;5.13;3.00;;;;;;;;;;6216607;23;20178;-90
2023/05/31 14:37:18;;;;;;;4.87;4.37;;;;;;;;;;6216090;23;20181;-91
2023/05/31 14:39:58;;;;;;;4.30;3.90;;;;;;;;;;6216028;23;20176;-90
2023/05/31 14:42:30;;;;;;;5.27;3.63;;;;;;;;;;6216715;23;20177;-90
2023/05/31 14:45:03;;;;;;;2.43;2.23;;;;;;;;;;6216064;23;20239;-90
2023/05/31 14:47:32;;;;;;;6.83;2.87;;;;;;;;;;6214796;23;20176;-90
2023/05/31 14:50:00;;;;;;;3.10;2.80;;;;;;;;;;6216103;23;20189;-90
2023/05/31 14:52:29;;;;;;;4.40;3.80;;;;;;;;;;6215513;23;20214;-90
2023/05/31 14:54:57;;;;;;;2.57;2.37;;;;;;;;;;6215259;23;20229;-90
2023/05/31 14:57:26;;;;;;;3.40;2.83;;;;;;;;;;6215725;23;20186;-90
2023/05/31 14:59:56;;;;;;;7.80;4.20;;;;;;;;;;6215503;23;20167;-89